Time;durP1;ratioP1;P1;durP2;ratioP2;P2;SDS_P1;SDS_P2;PMS_P1;PMS_P2;Temp;Humidity;BMP_temperature;BMP_pressure;BME280_temperature;BME280_humidity;BME280_pressure;Samples;Min_cycle;Max_cycle;Signal;HPM_P1;HPM_P2
2022/04/10 00:00:56;;;;;;;79.50;45.57;;;;;;;36.41;46.00;100792.47;5132685;27;20399;-72
2022/04/10 00:03:22;;;;;;;59.10;41.60;;;;;;;36.25;46.24;100791.09;5132924;27;20441;-73
2022/04/10 00:05:50;;;;;;;79.77;44.90;;;;;;;36.12;47.00;100786.47;5122706;27;20415;-73
2022/04/10 00:08:16;;;;;;;62.60;49.43;;;;;;;36.07;46.70;100790.03;5109969;28;20440;-74
2022/04/10 00:10:42;;;;;;;65.13;45.23;;;;;;;36.10;46.92;100794.06;5111537;28;20459;-73
2022/04/10 00:13:08;;;;;;;59.07;41.60;;;;;;;36.11;46.73;100785.66;5113301;28;20499;-72
2022/04/10 00:15:35;;;;;;;66.40;42.67;;;;;;;36.13;47.04;100788.88;5111452;28;20438;-73
2022/04/10 00:18:01;;;;;;;69.57;44.47;;;;;;;36.08;46.57;100786.25;5111866;28;20422;-72
2022/04/10 00:20:27;;;;;;;73.70;44.57;;;;;;;36.05;47.11;100793.03;5111855;28;20458;-72
2022/04/10 00:22:54;;;;;;;70.67;48.43;;;;;;;35.72;47.57;100788.66;5113046;28;20412;-73
2022/04/10 00:25:21;;;;;;;61.30;46.53;;;;;;;35.87;47.02;100787.63;5111488;28;20440;-74
2022/04/10 00:27:47;;;;;;;60.63;43.23;;;;;;;36.03;46.79;100789.84;5109740;28;20423;-75
2022/04/10 00:30:15;;;;;;;64.17;44.60;;;;;;;36.00;46.98;100785.03;5109600;28;20479;-74
2022/04/10 00:32:43;;;;;;;73.30;48.17;;;;;;;35.90;46.66;100785.13;5109636;28;20415;-74
2022/04/10 00:35:10;;;;;;;58.33;44.67;;;;;;;35.92;46.70;100777.59;5109575;28;20436;-75
2022/04/10 00:37:38;;;;;;;64.40;45.10;;;;;;;35.72;46.81;100772.47;5109572;28;20417;-74
2022/04/10 00:40:06;;;;;;;73.80;51.27;;;;;;;35.72;47.24;100775.16;5109791;28;20454;-74
2022/04/10 00:42:33;;;;;;;57.27;47.20;;;;;;;35.55;47.21;100774.91;5110950;28;20473;-74
2022/04/10 00:45:00;;;;;;;65.60;50.17;;;;;;;35.32;47.50;100779.22;5111290;28;20447;-74
2022/04/10 00:47:26;;;;;;;76.23;50.00;;;;;;;35.18;47.78;100776.44;5111434;28;20523;-74
2022/04/10 00:49:56;;;;;;;67.30;54.43;;;;;;;35.06;48.17;100776.03;5111249;28;21031;-74
2022/04/10 00:52:24;;;;;;;63.33;47.47;;;;;;;35.25;47.66;100779.56;5112566;28;20392;-74
2022/04/10 00:54:51;;;;;;;64.20;49.53;;;;;;;35.46;47.33;100769.34;5111045;28;20419;-74
2022/04/10 00:57:18;;;;;;;78.00;57.10;;;;;;;35.20;47.70;100772.34;5112544;28;20936;-73
2022/04/10 00:59:44;;;;;;;68.83;52.50;;;;;;;35.06;48.17;100771.44;5111157;28;20915;-74
2022/04/10 01:02:10;;;;;;;67.13;49.97;;;;;;;34.88;48.42;100770.28;5111160;28;20420;-73
2022/04/10 01:04:37;;;;;;;61.40;49.40;;;;;;;34.77;48.50;100774.19;5111133;28;20419;-74
2022/04/10 01:07:05;;;;;;;64.03;47.17;;;;;;;34.41;49.29;100769.13;5094129;28;20444;-74
2022/04/10 01:09:31;;;;;;;59.77;44.07;;;;;;;34.64;48.78;100764.88;5111047;28;20492;-74
2022/04/10 01:11:58;;;;;;;59.20;43.87;;;;;;;34.75;48.59;100760.19;5112259;28;20436;-73
2022/04/10 01:14:25;;;;;;;48.30;41.43;;;;;;;34.83;47.76;100761.44;5111121;28;20420;-74
2022/04/10 01:16:51;;;;;;;48.10;40.60;;;;;;;35.09;47.62;100756.59;5110991;28;20416;-73
2022/04/10 01:19:18;;;;;;;60.93;39.00;;;;;;;35.03;47.51;100755.03;5110838;28;20407;-73
2022/04/10 01:21:46;;;;;;;57.33;41.53;;;;;;;35.10;47.45;100752.78;5110865;28;20505;-73
2022/04/10 01:24:13;;;;;;;49.30;42.30;;;;;;;35.23;47.11;100758.28;5110994;28;20416;-74
2022/04/10 01:26:40;;;;;;;61.20;42.23;;;;;;;35.18;46.83;100746.78;5110759;28;20431;-74
2022/04/10 08:09:15;;;;;;;27.17;20.90;;;;;;;35.61;49.44;100922.13;6055945;22;2705245;-72
2022/04/10 08:12:02;;;;;;;29.63;19.70;;;;;;;35.77;49.27;100928.94;6165003;23;20188;-80
2022/04/10 08:14:28;;;;;;;42.17;22.67;;;;;;;35.63;49.26;100923.44;6164592;23;20427;-77
2022/04/10 08:16:54;;;;;;;31.57;21.93;;;;;;;35.83;48.74;100926.97;6190793;23;20453;-77
2022/04/10 08:19:20;;;;;;;28.87;21.93;;;;;;;36.10;48.44;100937.19;6191294;23;20359;-74
2022/04/10 08:21:46;;;;;;;33.80;20.57;;;;;;;35.96;48.75;100927.06;6164323;23;20383;-73
2022/04/10 08:24:12;;;;;;;30.67;20.47;;;;;;;36.11;48.48;100927.97;6164737;23;20403;-72
2022/04/10 08:26:38;;;;;;;18.00;14.90;;;;;;;36.25;48.21;100939.66;6191266;23;20356;-72
2022/04/10 08:29:05;;;;;;;24.37;12.80;;;;;;;36.39;47.90;100929.72;6140356;23;20376;-74
2022/04/10 08:31:31;;;;;;;23.77;14.17;;;;;;;36.44;47.30;100934.25;6164307;23;20399;-73
2022/04/10 08:33:57;;;;;;;24.67;16.20;;;;;;;36.45;47.18;100927.75;6191186;23;20374;-73
2022/04/10 08:36:23;;;;;;;29.50;19.07;;;;;;;36.56;47.11;100932.72;6164506;23;20458;-74
2022/04/10 08:38:49;;;;;;;27.90;19.13;;;;;;;36.62;47.12;100925.31;6165421;23;20414;-73
2022/04/10 08:41:15;;;;;;;27.67;17.53;;;;;;;36.72;46.92;100927.06;6140071;23;20434;-72
2022/04/10 08:43:42;;;;;;;28.53;16.20;;;;;;;36.77;46.71;100935.06;6165278;23;20400;-73
2022/04/10 08:46:08;;;;;;;49.50;16.67;;;;;;;36.79;46.97;100936.41;6165601;23;20410;-73
2022/04/10 08:48:36;;;;;;;20.33;11.00;;;;;;;36.71;46.67;100930.84;6165509;23;20387;-73
2022/04/10 08:51:03;;;;;;;19.20;11.80;;;;;;;36.76;46.47;100928.84;6165009;23;20384;-74
2022/04/10 08:53:32;;;;;;;16.60;9.53;;;;;;;36.86;46.29;100930.59;6140929;23;20383;-73
2022/04/10 08:55:59;;;;;;;24.33;11.13;;;;;;;36.89;45.68;100924.63;6165444;23;20379;-74
2022/04/10 08:58:25;;;;;;;18.90;11.47;;;;;;;36.91;46.61;100922.44;6163588;23;20387;-72
2022/04/10 09:00:51;;;;;;;21.60;9.77;;;;;;;36.98;46.29;100922.84;6165234;23;20444;-73
2022/04/10 09:03:18;;;;;;;25.90;10.13;;;;;;;37.02;45.93;100926.56;6165454;23;20380;-74
2022/04/10 09:06:01;;;;;;;17.60;11.47;;;;;;;37.05;46.22;100930.56;6161562;23;20455;-76
2022/04/10 09:08:27;;;;;;;21.67;12.80;;;;;;;36.95;46.49;100934.25;6132375;23;20373;-73
2022/04/10 09:10:55;;;;;;;19.27;12.20;;;;;;;36.94;46.42;100938.03;6128147;23;20437;-74
2022/04/10 09:13:27;;;;;;;27.40;13.57;;;;;;;36.94;46.62;100932.63;6127264;23;20444;-76
2022/04/10 09:16:19;;;;;;;16.93;9.37;;;;;;;36.93;45.80;100931.03;6126989;23;20377;-75
2022/04/10 09:18:57;;;;;;;22.20;12.07;;;;;;;36.97;46.76;100931.25;6126742;23;20473;-82
2022/04/10 09:21:29;;;;;;;24.83;13.10;;;;;;;37.02;46.19;100933.88;6128923;23;20408;-81
2022/04/10 09:23:59;;;;;;;24.40;11.17;;;;;;;37.00;45.99;100928.75;6128806;23;20413;-80
2022/04/10 09:26:48;;;;;;;15.47;10.80;;;;;;;36.95;45.97;100923.41;6104845;23;20464;-80
2022/04/10 09:29:16;;;;;;;23.67;13.70;;;;;;;37.02;46.61;100931.19;6153284;23;20404;-80
2022/04/10 09:31:42;;;;;;;17.37;12.80;;;;;;;37.03;46.47;100925.47;6129038;23;20389;-77
2022/04/10 09:34:11;;;;;;;18.47;12.70;;;;;;;37.06;45.96;100927.56;6154840;23;20528;-79
2022/04/10 09:37:06;;;;;;;16.70;12.00;;;;;;;37.06;45.97;100924.03;6153768;23;20389;-77
2022/04/10 09:39:37;;;;;;;17.60;10.87;;;;;;;37.09;45.87;100928.88;6129146;23;20800;-73
2022/04/10 09:42:04;;;;;;;27.97;15.00;;;;;;;37.08;46.34;100917.25;6153570;23;20413;-70
2022/04/10 09:44:35;;;;;;;22.60;12.60;;;;;;;37.08;45.96;100929.97;6153545;23;20448;-70
2022/04/10 09:47:08;;;;;;;17.53;12.50;;;;;;;37.06;46.36;100924.84;6127428;23;20392;-71
2022/04/10 09:49:36;;;;;;;19.60;13.70;;;;;;;37.08;46.34;100919.97;6128262;23;21030;-71
2022/04/10 09:52:06;;;;;;;20.30;16.30;;;;;;;37.10;46.46;100920.47;6103557;23;20389;-71
2022/04/10 09:54:34;;;;;;;30.57;16.53;;;;;;;37.17;46.12;100920.06;6127482;23;20439;-71
2022/04/10 09:57:12;;;;;;;26.97;14.87;;;;;;;37.17;46.12;100925.47;6127493;23;20428;-72
2022/04/10 09:59:49;;;;;;;39.87;15.27;;;;;;;37.19;45.96;100917.06;6127485;23;20385;-73
2022/04/10 10:02:20;;;;;;;27.23;14.63;;;;;;;37.13;46.70;100917.13;6154892;23;20496;-74
2022/04/10 10:04:48;;;;;;;26.50;12.90;;;;;;;37.18;46.35;100921.66;6153056;23;21015;-74
2022/04/10 10:07:16;;;;;;;20.83;14.70;;;;;;;37.12;46.78;100925.56;6154848;23;20361;-74
2022/04/10 10:09:43;;;;;;;19.73;12.50;;;;;;;37.21;46.19;100917.56;6128053;23;20508;-72
2022/04/10 10:12:10;;;;;;;16.30;11.60;;;;;;;37.22;46.62;100919.97;6128324;23;20436;-77
2022/04/10 10:14:38;;;;;;;21.17;14.30;;;;;;;37.19;46.35;100917.84;6128458;23;20446;-74
2022/04/10 10:17:06;;;;;;;25.80;13.27;;;;;;;37.26;46.00;100918.28;6128248;23;20382;-74
2022/04/10 10:19:38;;;;;;;19.07;13.93;;;;;;;37.28;46.40;100926.09;6127870;23;20420;-71
2022/04/10 10:22:06;;;;;;;27.33;13.63;;;;;;;37.18;47.02;100928.97;6128680;23;20726;-71
2022/04/10 10:25:10;;;;;;;19.00;11.20;;;;;;;37.24;46.50;100923.16;6128708;23;20448;-71
2022/04/10 10:27:55;;;;;;;22.40;11.83;;;;;;;37.23;46.43;100926.19;6101626;23;20717;-71
2022/04/10 10:30:29;;;;;;;21.47;9.73;;;;;;;37.20;46.47;100927.59;6128471;23;20437;-71
2022/04/10 10:33:09;;;;;;;17.97;9.90;;;;;;;37.15;46.37;100921.47;6128688;23;20381;-71
2022/04/10 10:35:40;;;;;;;27.13;11.40;;;;;;;37.18;46.78;100920.84;6154919;23;20377;-73
2022/04/10 10:38:19;;;;;;;23.17;10.60;;;;;;;37.26;46.22;100920.97;6128600;23;20385;-75
2022/04/10 10:40:45;;;;;;;20.20;12.07;;;;;;;37.32;46.21;100916.25;6154733;23;20731;-75
2022/04/10 10:43:11;;;;;;;24.60;11.00;;;;;;;37.27;46.40;100911.75;6128448;23;20385;-75
2022/04/10 10:45:41;;;;;;;15.97;8.40;;;;;;;37.30;46.23;100913.06;6128400;23;20424;-75
2022/04/10 10:48:32;;;;;;;28.23;12.23;;;;;;;37.41;46.42;100908.28;6128569;23;20389;-75
2022/04/10 10:51:10;;;;;;;19.23;12.00;;;;;;;37.42;46.55;100901.75;6154605;23;20366;-78
2022/04/10 10:53:46;;;;;;;19.33;10.87;;;;;;;37.45;45.99;100901.97;6128348;23;20456;-77
2022/04/10 10:56:20;;;;;;;19.30;12.10;;;;;;;37.47;45.97;100905.16;6128363;23;20401;-78
2022/04/10 10:58:50;;;;;;;42.27;14.37;;;;;;;37.44;46.35;100897.63;6154402;23;20929;-76
2022/04/10 11:01:26;;;;;;;23.20;13.43;;;;;;;37.44;46.50;100896.84;6128161;23;20476;-79
2022/04/10 11:03:59;;;;;;;15.77;10.87;;;;;;;37.46;46.40;100892.75;6127818;23;20413;-75
2022/04/10 11:06:28;;;;;;;23.03;11.03;;;;;;;37.50;46.02;100893.72;6128345;23;20389;-75
2022/04/10 11:08:54;;;;;;;20.57;9.97;;;;;;;37.50;46.14;100893.72;6127286;23;20759;-75
2022/04/10 11:11:20;;;;;;;17.30;9.53;;;;;;;37.50;46.17;100884.81;6128351;23;20432;-76
2022/04/10 11:13:46;;;;;;;16.77;9.63;;;;;;;37.55;46.08;100882.00;6128150;23;20416;-74
2022/04/10 11:16:14;;;;;;;15.73;9.30;;;;;;;37.60;46.40;100877.28;6128024;23;20384;-72
2022/04/10 11:18:50;;;;;;;24.10;8.90;;;;;;;37.64;45.96;100875.59;6128304;23;20416;-74
2022/04/10 11:21:21;;;;;;;15.37;9.87;;;;;;;37.63;45.89;100873.19;6127650;23;20396;-74
2022/04/10 11:23:48;;;;;;;13.93;8.23;;;;;;;37.64;45.43;100869.38;6128238;23;20393;-77
2022/04/10 11:26:22;;;;;;;15.27;9.73;;;;;;;37.55;45.19;100871.19;6154197;23;20881;-77
2022/04/10 11:29:04;;;;;;;24.40;11.00;;;;;;;37.63;45.54;100863.16;6128135;23;20388;-74
2022/04/10 11:31:40;;;;;;;17.57;8.40;;;;;;;37.72;45.70;100854.31;6128029;23;20400;-73
2022/04/10 11:34:07;;;;;;;21.67;9.13;;;;;;;37.79;45.09;100851.97;6128222;23;20385;-76
2022/04/10 11:36:55;;;;;;;19.10;9.17;;;;;;;37.79;45.38;100854.69;6127894;23;20389;-73
2022/04/10 11:39:32;;;;;;;21.10;9.83;;;;;;;37.85;45.80;100848.88;6128068;23;20528;-74
2022/04/10 11:42:08;;;;;;;13.03;8.30;;;;;;;37.86;45.31;100831.50;6128092;23;20423;-73
2022/04/10 11:44:35;;;;;;;15.70;10.10;;;;;;;37.88;45.00;100829.31;6127161;23;20431;-71
2022/04/10 11:47:08;;;;;;;14.20;7.40;;;;;;;37.87;45.17;100822.28;6127188;23;20390;-76
2022/04/10 11:49:35;;;;;;;15.17;8.10;;;;;;;37.79;45.12;100811.38;6126788;23;20495;-74
2022/04/10 11:52:02;;;;;;;21.63;7.83;;;;;;;37.85;44.93;100810.97;6127684;23;20405;-75
2022/04/10 11:54:31;;;;;;;24.07;10.37;;;;;;;37.96;45.27;100806.13;6153851;23;20444;-76
2022/04/10 11:57:07;;;;;;;17.20;7.50;;;;;;;37.94;45.23;100811.06;6127561;23;20928;-74
2022/04/10 11:59:39;;;;;;;12.10;7.13;;;;;;;37.89;44.96;100801.13;6127372;23;20437;-74
2022/04/10 12:02:10;;;;;;;15.37;6.97;;;;;;;37.87;44.77;100797.91;6127821;23;20420;-72
2022/04/10 12:04:40;;;;;;;14.83;8.60;;;;;;;37.94;44.75;100792.09;6127451;23;20425;-74
2022/04/10 12:07:19;;;;;;;16.33;8.37;;;;;;;38.00;44.89;100787.34;6153540;23;20357;-72
2022/04/10 12:09:54;;;;;;;25.13;8.93;;;;;;;37.98;44.73;100776.81;6126657;23;20402;-74
2022/04/10 12:12:33;;;;;;;13.60;6.70;;;;;;;37.97;44.69;100785.25;6127021;23;20381;-72
2022/04/10 12:15:00;;;;;;;15.23;8.80;;;;;;;37.99;44.84;100773.00;6153831;23;20349;-76
2022/04/10 12:17:26;;;;;;;16.57;6.27;;;;;;;38.03;44.67;100771.28;6127693;23;20381;-74
2022/04/10 12:19:55;;;;;;;17.87;7.00;;;;;;;38.04;44.71;100766.66;6127540;23;20523;-71
2022/04/10 12:22:22;;;;;;;17.53;7.67;;;;;;;37.94;44.93;100770.44;6153859;23;20364;-72
2022/04/10 12:24:49;;;;;;;14.97;6.87;;;;;;;38.04;44.56;100761.25;6127909;23;20420;-72
2022/04/10 12:27:17;;;;;;;18.53;7.03;;;;;;;38.06;44.18;100761.72;6127790;23;20444;-74
2022/04/10 12:29:43;;;;;;;17.30;6.70;;;;;;;38.10;44.51;100755.38;6127276;23;20488;-74
2022/04/10 12:32:10;;;;;;;20.20;7.40;;;;;;;38.08;44.86;100746.78;6153844;23;20428;-71
2022/04/10 12:34:41;;;;;;;12.00;5.87;;;;;;;38.14;44.62;100736.63;6127618;23;20892;-73
2022/04/10 12:37:11;;;;;;;9.47;6.40;;;;;;;38.17;43.99;100735.97;6127600;23;20385;-75
2022/04/10 12:39:37;;;;;;;12.90;7.27;;;;;;;38.22;44.34;100721.50;6153747;23;20366;-71
2022/04/10 12:42:13;;;;;;;18.53;7.10;;;;;;;38.17;44.11;100725.16;6128516;23;20420;-72
2022/04/10 12:44:41;;;;;;;13.07;7.00;;;;;;;38.24;44.25;100716.56;6129368;23;20924;-70
2022/04/10 12:47:09;;;;;;;14.80;7.37;;;;;;;38.31;44.41;100711.56;6154647;23;20397;-71
2022/04/10 12:49:36;;;;;;;13.40;6.47;;;;;;;38.26;44.32;100707.06;6127058;23;20385;-72
2022/04/10 12:52:04;;;;;;;18.17;6.10;;;;;;;38.30;44.08;100702.59;6153336;23;20960;-72
2022/04/10 12:54:45;;;;;;;11.50;6.17;;;;;;;38.30;43.94;100697.19;6127191;23;20388;-71
2022/04/10 12:57:24;;;;;;;16.73;7.57;;;;;;;38.38;43.73;100695.66;6127097;23;20435;-70
2022/04/10 12:59:50;;;;;;;11.60;5.80;;;;;;;38.41;44.09;100690.38;6127300;23;20413;-71
2022/04/10 13:02:30;;;;;;;18.90;7.60;;;;;;;38.38;43.99;100695.66;6127976;23;20451;-70
2022/04/10 13:05:13;;;;;;;19.03;6.90;;;;;;;38.40;43.86;100680.66;6154993;23;20483;-71
2022/04/10 13:08:03;;;;;;;13.63;6.27;;;;;;;38.37;43.91;100675.88;6155382;23;20709;-70
2022/04/10 13:10:29;;;;;;;20.20;7.70;;;;;;;38.48;43.42;100670.16;6104848;23;20400;-74
2022/04/10 13:13:05;;;;;;;26.53;8.50;;;;;;;38.39;43.53;100667.44;6127812;23;20381;-74
2022/04/10 13:15:33;;;;;;;21.37;9.63;;;;;;;38.47;43.44;100655.00;6154889;23;20822;-72
2022/04/10 13:18:00;;;;;;;18.47;6.63;;;;;;;38.55;43.12;100655.06;6129134;23;20381;-78
2022/04/10 13:20:28;;;;;;;16.33;8.27;;;;;;;38.62;43.16;100658.09;6128991;23;20468;-74
2022/04/10 13:22:55;;;;;;;18.20;8.60;;;;;;;38.72;43.17;100653.50;6155304;23;20389;-79
2022/04/10 13:25:23;;;;;;;18.90;6.90;;;;;;;38.70;42.78;100651.09;6128862;23;20424;-77
2022/04/10 13:27:52;;;;;;;14.53;7.23;;;;;;;38.74;43.16;100654.00;6128973;23;20393;-74
2022/04/10 13:30:19;;;;;;;13.73;5.93;;;;;;;38.75;42.80;100642.03;6155140;23;20361;-73
2022/04/10 13:32:45;;;;;;;9.90;5.30;;;;;;;38.79;42.52;100641.06;6128991;23;20884;-72
2022/04/10 13:35:11;;;;;;;15.53;6.63;;;;;;;38.81;42.37;100629.94;6128986;23;20397;-73
2022/04/10 13:37:37;;;;;;;16.77;6.07;;;;;;;38.84;42.27;100629.28;6128890;23;20389;-77
2022/04/10 13:40:04;;;;;;;12.30;5.70;;;;;;;38.80;41.78;100628.34;6128940;23;20473;-76
2022/04/10 13:42:34;;;;;;;9.20;6.20;;;;;;;38.84;42.01;100621.13;6128708;23;20385;-73
2022/04/10 13:45:02;;;;;;;15.53;8.97;;;;;;;38.86;41.65;100622.44;6128759;23;20499;-73
2022/04/10 13:47:28;;;;;;;10.17;5.90;;;;;;;38.90;41.81;100611.72;6128704;23;20737;-73
2022/04/10 13:49:54;;;;;;;13.53;5.83;;;;;;;38.90;41.64;100607.09;6154736;23;20456;-73
2022/04/10 13:52:21;;;;;;;15.03;5.60;;;;;;;39.00;42.23;100616.06;6128695;23;20865;-74
2022/04/10 13:54:47;;;;;;;11.70;5.63;;;;;;;39.01;41.57;100615.72;6128757;23;20756;-73
2022/04/10 13:57:13;;;;;;;13.30;5.90;;;;;;;39.08;41.30;100607.09;6128797;23;20932;-73
2022/04/10 13:59:40;;;;;;;17.23;6.40;;;;;;;39.15;40.55;100605.50;6154969;23;20385;-73
2022/04/10 14:02:06;;;;;;;15.63;7.13;;;;;;;39.16;40.59;100598.97;6154484;23;20369;-75
2022/04/10 14:04:32;;;;;;;15.83;6.80;;;;;;;39.12;40.43;100598.00;6154810;23;20869;-75
2022/04/10 14:06:58;;;;;;;9.40;5.03;;;;;;;39.15;40.26;100591.94;6128412;23;20428;-72
2022/04/10 14:09:24;;;;;;;14.33;6.13;;;;;;;39.20;40.72;100594.50;6128326;23;20441;-72
2022/04/10 14:11:50;;;;;;;16.83;5.40;;;;;;;39.16;40.94;100596.25;6128446;23;20401;-76
2022/04/10 14:14:17;;;;;;;11.77;5.67;;;;;;;39.21;40.52;100595.31;6128780;23;20389;-73
2022/04/10 14:16:43;;;;;;;9.87;4.80;;;;;;;39.15;40.63;100591.13;6128677;23;20389;-74
2022/04/10 14:19:09;;;;;;;11.93;6.40;;;;;;;39.10;40.40;100591.28;6128120;23;20421;-76
2022/04/10 14:21:36;;;;;;;14.73;6.77;;;;;;;39.21;40.68;100590.69;6128086;23;20385;-75
2022/04/10 14:24:03;;;;;;;16.20;6.40;;;;;;;39.23;40.59;100585.75;6128263;23;20504;-76
2022/04/10 14:26:29;;;;;;;15.00;5.87;;;;;;;39.28;40.38;100584.75;6128361;23;20393;-75
2022/04/10 14:28:55;;;;;;;13.60;6.20;;;;;;;39.37;40.16;100579.34;6154522;23;20397;-74
2022/04/10 14:31:22;;;;;;;15.80;5.17;;;;;;;39.41;40.56;100577.53;6128604;23;20392;-74
2022/04/10 14:33:48;;;;;;;17.33;6.50;;;;;;;39.51;40.42;100585.34;6128535;23;20858;-73
2022/04/10 14:36:14;;;;;;;16.10;6.20;;;;;;;39.54;40.21;100579.28;6128265;23;20408;-72
2022/04/10 14:38:40;;;;;;;12.30;6.47;;;;;;;39.52;40.67;100578.81;6154788;23;20393;-73
2022/04/10 14:41:08;;;;;;;13.87;5.47;;;;;;;39.54;40.67;100573.88;6154885;23;20388;-75
2022/04/10 14:43:35;;;;;;;9.33;5.40;;;;;;;39.54;40.18;100568.44;6154573;23;20397;-73
2022/04/10 14:46:02;;;;;;;10.73;5.10;;;;;;;39.52;40.27;100569.88;6154583;23;20414;-77
2022/04/10 14:48:28;;;;;;;12.00;6.03;;;;;;;39.52;40.26;100567.94;6128199;23;20419;-78
2022/04/10 14:50:54;;;;;;;10.60;5.17;;;;;;;39.54;40.12;100567.63;6146655;22;20462;-73
2022/04/10 14:53:21;;;;;;;8.43;5.10;;;;;;;39.65;40.05;100560.75;6184420;23;20364;-75
2022/04/10 14:55:47;;;;;;;15.67;6.10;;;;;;;39.67;40.37;100567.47;6157564;23;20388;-71
2022/04/10 14:58:14;;;;;;;15.73;6.23;;;;;;;39.62;40.23;100564.13;6157128;23;20867;-73
2022/04/10 15:00:40;;;;;;;23.93;7.03;;;;;;;39.58;40.70;100566.66;6157895;23;20388;-75
2022/04/10 15:03:07;;;;;;;13.30;5.53;;;;;;;39.66;40.22;100563.16;6157671;23;20903;-73
2022/04/10 15:05:33;;;;;;;9.47;6.63;;;;;;;39.72;40.08;100567.28;6133156;23;20427;-74
2022/04/10 15:07:59;;;;;;;7.73;5.43;;;;;;;39.84;39.93;100566.59;6183996;23;20431;-72
2022/04/10 15:10:27;;;;;;;16.53;7.23;;;;;;;39.78;40.34;100567.06;6157565;23;20480;-72
2022/04/10 15:12:53;;;;;;;10.40;5.57;;;;;;;39.79;39.82;100565.97;6184237;23;20391;-74
2022/04/10 15:15:20;;;;;;;15.37;7.37;;;;;;;39.83;40.35;100569.63;6133338;23;20387;-74
2022/04/10 15:17:46;;;;;;;15.40;6.60;;;;;;;39.91;39.87;100561.44;6157802;23;20979;-73
2022/04/10 15:20:12;;;;;;;11.80;7.07;;;;;;;39.89;39.71;100557.44;6157482;23;20388;-75
2022/04/10 15:22:38;;;;;;;22.17;6.43;;;;;;;39.90;40.13;100573.44;6158257;23;20436;-74
2022/04/10 15:25:06;;;;;;;11.53;6.30;;;;;;;39.89;39.85;100562.88;6157740;23;20498;-75
2022/04/10 15:27:34;;;;;;;13.83;5.77;;;;;;;39.90;40.16;100559.84;6157100;23;20380;-76
2022/04/10 15:30:02;;;;;;;11.93;7.13;;;;;;;39.94;40.16;100568.94;6184049;23;20361;-72
2022/04/10 15:32:28;;;;;;;13.93;8.00;;;;;;;39.95;39.92;100554.22;6157485;23;20376;-76
2022/04/10 15:34:54;;;;;;;16.53;7.67;;;;;;;39.96;39.95;100555.84;6157496;23;20384;-73
2022/04/10 15:37:20;;;;;;;13.63;6.33;;;;;;;39.97;39.93;100554.72;6184003;23;20371;-74
2022/04/10 15:39:46;;;;;;;13.93;7.60;;;;;;;39.98;40.13;100550.88;6157493;23;20393;-74
2022/04/10 15:42:12;;;;;;;15.03;7.23;;;;;;;40.06;40.10;100551.16;6183846;23;20729;-72
2022/04/10 15:44:38;;;;;;;13.80;7.70;;;;;;;40.01;40.33;100550.19;6157294;23;20562;-75
2022/04/10 15:47:05;;;;;;;13.00;6.50;;;;;;;40.11;39.85;100543.63;6157630;23;20479;-73
2022/04/10 15:49:31;;;;;;;17.17;6.30;;;;;;;40.12;39.60;100550.66;6157469;23;20395;-74
2022/04/10 15:51:58;;;;;;;13.10;6.10;;;;;;;40.18;39.56;100554.78;6157237;23;20448;-73
2022/04/10 15:54:24;;;;;;;14.40;5.63;;;;;;;40.13;39.56;100549.53;6157513;23;20408;-73
2022/04/10 15:56:50;;;;;;;19.80;7.47;;;;;;;40.14;39.84;100545.66;6183827;23;20374;-77
2022/04/10 15:59:16;;;;;;;15.50;7.40;;;;;;;40.11;39.83;100551.78;6157977;23;20383;-73
2022/04/10 16:01:42;;;;;;;16.30;6.73;;;;;;;40.18;39.23;100546.63;6157528;23;20387;-77
2022/04/10 16:04:08;;;;;;;15.63;6.33;;;;;;;40.15;39.73;100547.28;6157149;23;20433;-73
2022/04/10 16:06:36;;;;;;;24.63;5.93;;;;;;;40.14;39.50;100558.47;6183525;23;20376;-75
2022/04/10 16:09:03;;;;;;;19.33;7.77;;;;;;;40.11;40.11;100556.41;6157012;23;20482;-73
2022/04/10 16:11:29;;;;;;;18.80;7.10;;;;;;;40.08;39.72;100554.34;6157274;23;20414;-74
2022/04/10 16:13:55;;;;;;;16.90;6.97;;;;;;;40.12;40.27;100558.00;6157409;23;20853;-74
2022/04/10 16:16:21;;;;;;;18.13;7.30;;;;;;;40.21;39.48;100562.28;6157602;23;20373;-76
2022/04/10 16:18:47;;;;;;;11.73;6.27;;;;;;;40.21;39.09;100564.19;6159128;23;20494;-75
2022/04/10 16:21:13;;;;;;;16.63;7.57;;;;;;;40.11;39.97;100568.09;6159532;23;20475;-74
2022/04/10 16:23:39;;;;;;;23.83;7.50;;;;;;;40.06;40.10;100562.81;6185612;23;20451;-72
2022/04/10 16:26:06;;;;;;;19.93;6.53;;;;;;;40.14;39.67;100561.97;6159615;23;20419;-73
2022/04/10 16:31:16;;;;;;;16.10;6.53;;;;;;;40.09;39.77;100566.81;6185636;23;20526;-77
2022/04/10 16:36:29;;;;;;;19.20;7.30;;;;;;;40.06;39.89;100570.19;6185614;23;20348;-75
2022/04/10 16:38:56;;;;;;;16.00;8.40;;;;;;;40.10;40.18;100569.22;6159083;23;20853;-73
2022/04/10 16:41:22;;;;;;;11.37;7.30;;;;;;;40.17;39.80;100563.25;6158950;23;20433;-73
2022/04/10 16:43:48;;;;;;;21.03;9.10;;;;;;;40.21;39.93;100572.34;6159086;23;20391;-72
2022/04/10 16:46:14;;;;;;;15.40;7.93;;;;;;;40.23;40.07;100573.59;6159072;23;20434;-72
2022/04/10 16:48:40;;;;;;;15.40;8.30;;;;;;;40.24;40.06;100568.97;6158867;23;20915;-72
2022/04/10 16:51:06;;;;;;;11.00;6.63;;;;;;;40.26;39.82;100570.22;6158706;23;20498;-72
2022/04/10 16:53:37;;;;;;;15.53;8.43;;;;;;;40.25;39.63;100574.06;6159156;23;20380;-73
2022/04/10 16:56:04;;;;;;;19.00;7.80;;;;;;;40.28;40.07;100575.34;6158987;23;20889;-74
2022/04/10 16:58:30;;;;;;;23.50;9.63;;;;;;;40.29;39.68;100582.38;6159179;23;20392;-73
2022/04/10 17:00:57;;;;;;;21.37;8.20;;;;;;;40.25;40.32;100584.13;6159215;23;20400;-72
2022/04/10 17:03:23;;;;;;;10.40;6.10;;;;;;;40.27;39.81;100581.91;6159001;23;20388;-73
2022/04/10 17:05:49;;;;;;;18.60;8.90;;;;;;;40.24;40.46;100583.34;6134360;23;20506;-73
2022/04/10 17:08:15;;;;;;;11.33;7.00;;;;;;;40.20;40.30;100582.41;6185334;23;20440;-75
2022/04/10 17:10:41;;;;;;;12.33;5.67;;;;;;;40.18;40.15;100584.66;6158770;23;20439;-73
2022/04/10 17:13:07;;;;;;;20.30;7.67;;;;;;;40.07;40.19;100590.78;6159043;23;20392;-74
2022/04/10 17:15:33;;;;;;;24.10;7.33;;;;;;;40.09;40.52;100592.06;6159081;23;20384;-73
2022/04/10 17:18:00;;;;;;;14.53;7.67;;;;;;;40.03;40.63;100596.88;6158883;23;20380;-73
2022/04/10 17:20:26;;;;;;;15.17;5.83;;;;;;;40.07;40.47;100588.88;6185395;23;20370;-75
2022/04/10 17:22:52;;;;;;;16.83;8.80;;;;;;;40.02;40.61;100592.56;6185261;23;20392;-74
2022/04/10 17:25:18;;;;;;;14.57;7.07;;;;;;;39.95;40.40;100591.44;6185120;23;20486;-73
2022/04/10 17:27:44;;;;;;;12.80;7.43;;;;;;;39.93;40.47;100604.56;6134593;23;20395;-73
2022/04/10 17:30:10;;;;;;;20.40;6.73;;;;;;;39.89;40.78;100603.63;6134507;23;20385;-74
2022/04/10 17:32:36;;;;;;;16.80;6.97;;;;;;;39.92;41.10;100602.97;6158584;23;20411;-73
2022/04/10 17:35:03;;;;;;;17.00;8.90;;;;;;;39.69;41.32;100603.22;6158873;23;20392;-73
2022/04/10 17:37:29;;;;;;;23.77;11.13;;;;;;;39.74;41.47;100607.69;6158831;23;20395;-72
2022/04/10 17:39:56;;;;;;;15.90;7.07;;;;;;;39.70;41.49;100606.72;6158701;23;20880;-74
2022/04/10 17:42:22;;;;;;;22.43;7.90;;;;;;;39.74;40.99;100610.41;6185242;23;20368;-72
2022/04/10 17:44:50;;;;;;;12.67;6.87;;;;;;;39.61;41.36;100604.06;6158566;23;20432;-72
2022/04/10 17:47:16;;;;;;;11.37;6.53;;;;;;;39.60;41.62;100610.59;6185223;23;20356;-73
2022/04/10 17:49:42;;;;;;;17.87;8.10;;;;;;;39.43;41.74;100608.69;6184940;23;20369;-73
2022/04/10 17:52:08;;;;;;;21.73;8.23;;;;;;;39.40;41.76;100603.88;6158278;23;20448;-73
2022/04/10 17:54:35;;;;;;;19.10;7.87;;;;;;;39.44;41.68;100606.78;6158663;23;20397;-72
2022/04/10 17:57:01;;;;;;;17.30;7.50;;;;;;;39.37;41.85;100609.97;6158229;23;20745;-73
2022/04/10 17:59:27;;;;;;;17.87;8.87;;;;;;;39.32;41.48;100612.06;6158720;23;20875;-73
2022/04/10 18:01:53;;;;;;;13.07;8.50;;;;;;;39.28;42.10;100608.38;6158607;23;20930;-72
2022/04/10 18:04:19;;;;;;;12.30;7.63;;;;;;;39.34;41.73;100609.81;6158421;23;20384;-72
2022/04/10 18:06:47;;;;;;;17.47;8.30;;;;;;;39.38;41.90;100613.50;6158350;23;20479;-72